| time (UTC) | temp F | wind direction | speed knots | gust knots | rain 1hr in | rain 24hr in | rain mn in | humidity % | barometer mb |
| 20260906193003 | 106 | 256 | 2.6 | 11.3 | 0.00 | 0.00 | 0.00 | 33 | 1011.2 |
| 20260906191503 | 107 | 226 | 0.9 | 5.2 | 0.00 | 0.00 | 0.00 | 32 | 1011.5 |
| 20260906190218 | 107 | 236 | 0.9 | 7.0 | 0.00 | 0.00 | 0.00 | 33 | 1011.6 |
| 20260906184503 | 106 | 171 | 0.9 | 5.2 | 0.00 | 0.00 | 0.00 | 34 | 1012.0 |
| 20260906183003 | 105 | 195 | 0.9 | 5.2 | 0.00 | 0.00 | 0.00 | 36 | 1012.2 |
| 20260906181503 | 104 | 255 | 1.7 | 6.1 | 0.00 | 0.00 | 0.00 | 35 | 1012.4 |
| 20260906180218 | 104 | 258 | 0.9 | 5.2 | 0.00 | 0.00 | 0.00 | 35 | 1012.7 |
| 20260906174503 | 104 | 225 | 0.9 | 2.6 | 0.00 | 0.00 | 0.00 | 38 | 1013.1 |
| 20260906173003 | 103 | 231 | 0.9 | 5.2 | 0.00 | 0.00 | 0.00 | 38 | 1013.2 |
| 20260906171503 | 102 | 316 | 0.9 | 3.5 | 0.00 | 0.00 | 0.00 | 39 | 1013.5 |
| 20260906170003 | 101 | 269 | 0.9 | 3.5 | 0.00 | 0.00 | 0.00 | 39 | 1013.7 |
| 20260906164503 | 100 | 234 | 0.0 | 3.5 | 0.00 | 0.00 | 0.00 | 41 | 1013.9 |
| 20260906163003 | 97 | 238 | 0.0 | 1.7 | 0.00 | 0.00 | 0.00 | 45 | 1013.9 |
| 20260906161503 | 98 | 241 | 0.0 | 4.3 | 0.00 | 0.00 | 0.00 | 44 | 1013.9 |
| 20260906160003 | 98 | 246 | 0.0 | 3.5 | 0.00 | 0.00 | 0.00 | 48 | 1014.0 |
| 20260906154503 | 97 | 298 | 0.9 | 3.5 | 0.00 | 0.00 | 0.00 | 49 | 1014.0 |
| 20260906153003 | 94 | 333 | 0.9 | 2.6 | 0.00 | 0.00 | 0.00 | 55 | 1014.0 |
| 20260906151717 | 92 | 333 | 0.0 | 1.7 | 0.00 | 0.00 | 0.00 | 56 | 1013.9 |
| 20260906150003 | 91 | 333 | 0.0 | 0.9 | 0.00 | 0.00 | 0.00 | 59 | 1013.8 |
| 20260906144503 | 89 | 0 | 0.0 | 0.0 | 0.00 | 0.00 | 0.00 | 62 | 1013.7 |
| 20260906143003 | 88 | 0 | 0.0 | 0.0 | 0.00 | 0.00 | 0.00 | 64 | 1013.7 |
| 20260906141503 | 86 | 0 | 0.0 | 0.0 | 0.00 | 0.00 | 0.00 | 69 | 1013.7 |
| 20260906140218 | 84 | 0 | 0.0 | 0.0 | 0.00 | 0.00 | 0.00 | 70 | 1013.6 |
| 20260906134717 | 82 | 0 | 0.0 | 0.0 | 0.00 | 0.00 | 0.00 | 75 | 1013.4 |
| 20260906133003 | 80 | 0 | 0.0 | 0.0 | 0.00 | 0.00 | 0.00 | 79 | 1013.5 |
| 20260906131503 | 78 | 0 | 0.0 | 0.0 | 0.00 | 0.00 | 0.00 | 84 | 1013.4 |
| 20260906130004 | 76 | 0 | 0.0 | 0.0 | 0.00 | 0.00 | 0.00 | 87 | 1013.4 |
| 20260906124503 | 75 | 0 | 0.0 | 0.0 | 0.00 | 0.00 | 0.00 | 85 | 1013.3 |
| 20260906123004 | 75 | 0 | 0.0 | 0.0 | 0.00 | 0.00 | 0.00 | 83 | 1013.1 |
| 20260906121503 | 75 | 0 | 0.0 | 0.0 | 0.00 | 0.00 | 0.00 | 83 | 1013.0 |
| 20260906120003 | 76 | 0 | 0.0 | 0.0 | 0.00 | 0.00 | 0.00 | 82 | 1012.8 |
| 20260906114504 | 76 | 0 | 0.0 | 0.0 | 0.00 | 0.00 | 0.00 | 81 | 1012.7 |
| 20260906113003 | 76 | 0 | 0.0 | 0.0 | 0.00 | 0.00 | 0.00 | 81 | 1012.6 |
| 20260906111503 | 76 | 0 | 0.0 | 0.0 | 0.00 | 0.00 | 0.00 | 81 | 1012.4 |
| 20260906110003 | 76 | 0 | 0.0 | 0.0 | 0.00 | 0.00 | 0.00 | 81 | 1012.2 |
| 20260906104503 | 77 | 0 | 0.0 | 0.0 | 0.00 | 0.00 | 0.00 | 81 | 1012.2 |
| 20260906103003 | 77 | 0 | 0.0 | 0.0 | 0.00 | 0.00 | 0.00 | 81 | 1012.2 |
| 20260906101503 | 77 | 0 | 0.0 | 0.0 | 0.00 | 0.00 | 0.00 | 80 | 1012.2 |
| 20260906100218 | 77 | 0 | 0.0 | 0.0 | 0.00 | 0.00 | 0.00 | 80 | 1012.2 |
| 20260906094504 | 77 | 0 | 0.0 | 0.0 | 0.00 | 0.00 | 0.00 | 80 | 1012.2 |
| 20260906093004 | 78 | 0 | 0.0 | 0.0 | 0.00 | 0.00 | 0.00 | 80 | 1012.1 |
| 20260906091504 | 78 | 0 | 0.0 | 0.0 | 0.00 | 0.00 | 0.00 | 80 | 1012.1 |
| 20260906090003 | 78 | 0 | 0.0 | 0.0 | 0.00 | 0.00 | 0.00 | 78 | 1011.9 |
| 20260906084503 | 78 | 0 | 0.0 | 0.0 | 0.00 | 0.00 | 0.00 | 78 | 1011.9 |
| 20260906083218 | 79 | 0 | 0.0 | 0.0 | 0.00 | 0.00 | 0.00 | 76 | 1011.8 |
| 20260906081503 | 79 | 0 | 0.0 | 0.0 | 0.00 | 0.00 | 0.00 | 76 | 1011.6 |
| 20260906080003 | 79 | 0 | 0.0 | 0.0 | 0.00 | 0.00 | 0.00 | 75 | 1011.6 |
| 20260906074503 | 80 | 0 | 0.0 | 0.0 | 0.00 | 0.00 | 0.00 | 74 | 1011.5 |
| 20260906073218 | 80 | 0 | 0.0 | 0.0 | 0.00 | 0.00 | 0.00 | 74 | 1011.4 |
| 20260906071503 | 80 | 0 | 0.0 | 0.0 | 0.00 | 0.00 | 0.00 | 73 | 1011.6 |
| 20260906070004 | 80 | 0 | 0.0 | 0.0 | 0.00 | 0.00 | 0.00 | 73 | 1011.7 |
| 20260906064503 | 81 | 0 | 0.0 | 0.0 | 0.00 | 0.00 | 0.00 | 72 | 1011.7 |
| 20260906063003 | 81 | 0 | 0.0 | 0.0 | 0.00 | 0.00 | 0.00 | 71 | 1011.7 |
| 20260906061718 | 82 | 0 | 0.0 | 0.0 | 0.00 | 0.00 | 0.00 | 70 | 1011.7 |
| 20260906060003 | 82 | 0 | 0.0 | 0.0 | 0.00 | 0.00 | 0.00 | 69 | 1011.8 |
| 20260906054503 | 82 | 0 | 0.0 | 0.0 | 0.00 | 0.00 | 0.00 | 68 | 1011.8 |
| 20260906053004 | 82 | 0 | 0.0 | 0.0 | 0.00 | 0.00 | 0.00 | 67 | 1011.6 |
| 20260906051718 | 83 | 0 | 0.0 | 0.0 | 0.00 | 0.00 | 0.00 | 67 | 1011.5 |
| 20260906050003 | 83 | 0 | 0.0 | 0.0 | 0.00 | 0.00 | 0.00 | 67 | 1011.5 |
| 20260906044503 | 84 | 0 | 0.0 | 0.0 | 0.00 | 0.00 | 0.00 | 65 | 1011.6 |
| 20260906043003 | 84 | 0 | 0.0 | 0.0 | 0.00 | 0.00 | 0.00 | 64 | 1011.4 |
| 20260906041503 | 85 | 0 | 0.0 | 0.0 | 0.00 | 0.00 | 0.00 | 62 | 1011.5 |
| 20260906040004 | 85 | 0 | 0.0 | 0.0 | 0.00 | 0.00 | 0.00 | 60 | 1011.5 |
| 20260906034503 | 86 | 0 | 0.0 | 0.0 | 0.00 | 0.00 | 0.00 | 60 | 1011.4 |
| 20260906033218 | 86 | 0 | 0.0 | 0.0 | 0.00 | 0.00 | 0.00 | 60 | 1011.3 |
| 20260906031503 | 87 | 0 | 0.0 | 0.0 | 0.00 | 0.00 | 0.00 | 59 | 1011.4 |
| 20260906030218 | 87 | 0 | 0.0 | 0.0 | 0.00 | 0.00 | 0.00 | 57 | 1011.4 |
| 20260906024503 | 88 | 0 | 0.0 | 0.0 | 0.00 | 0.00 | 0.00 | 55 | 1011.2 |
| 20260906023003 | 89 | 0 | 0.0 | 0.0 | 0.00 | 0.00 | 0.00 | 53 | 1011.0 |
| 20260906021503 | 90 | 0 | 0.0 | 0.0 | 0.00 | 0.00 | 0.00 | 52 | 1010.7 |
| 20260906020003 | 91 | 0 | 0.0 | 0.0 | 0.00 | 0.00 | 0.00 | 50 | 1010.6 |
| 20260906014503 | 92 | 0 | 0.0 | 0.0 | 0.00 | 0.00 | 0.00 | 47 | 1010.5 |
| 20260906013003 | 94 | 0 | 0.0 | 0.0 | 0.00 | 0.00 | 0.00 | 45 | 1010.4 |
| 20260906011503 | 96 | 0 | 0.0 | 0.0 | 0.00 | 0.00 | 0.00 | 42 | 1010.3 |
| 20260906010003 | 97 | 0 | 0.0 | 0.0 | 0.00 | 0.00 | 0.00 | 41 | 1010.1 |
| 20260906004503 | 99 | 205 | 0.0 | 0.9 | 0.00 | 0.00 | 0.00 | 38 | 1010.1 |
| 20260906003003 | 101 | 0 | 0.0 | 0.0 | 0.00 | 0.00 | 0.00 | 36 | 1010.1 |
| 20260906001503 | 102 | 147 | 0.0 | 1.7 | 0.00 | 0.00 | 0.00 | 34 | 1010.0 |
| 20260906000003 | 104 | 147 | 0.0 | 0.9 | 0.00 | 0.00 | 0.00 | 33 | 1010.0 |
| 20260905234718 | 104 | 147 | 0.9 | 2.6 | 0.00 | 0.00 | 0.00 | 32 | 1010.0 |
| 20260905233003 | 105 | 147 | 0.9 | 3.5 | 0.00 | 0.00 | 0.00 | 31 | 1009.8 |
| 20260905231504 | 106 | 148 | 0.9 | 4.3 | 0.00 | 0.00 | 0.00 | 31 | 1009.8 |
| 20260905230004 | 106 | 149 | 0.9 | 4.3 | 0.00 | 0.00 | 0.00 | 30 | 1009.7 |
| 20260905224503 | 107 | 150 | 0.9 | 4.3 | 0.00 | 0.00 | 0.00 | 30 | 1009.8 |
| 20260905223004 | 107 | 104 | 0.9 | 5.2 | 0.00 | 0.00 | 0.00 | 29 | 1009.9 |
| 20260905221503 | 107 | 115 | 1.7 | 6.1 | 0.00 | 0.00 | 0.00 | 31 | 1010.0 |
| 20260905220003 | 106 | 82 | 1.7 | 6.1 | 0.00 | 0.00 | 0.00 | 31 | 1010.1 |
| 20260905214503 | 107 | 136 | 0.9 | 7.0 | 0.00 | 0.00 | 0.00 | 31 | 1010.2 |
| 20260905213218 | 107 | 123 | 0.9 | 2.6 | 0.00 | 0.00 | 0.00 | 32 | 1010.3 |
| 20260905211503 | 107 | 250 | 0.9 | 4.3 | 0.00 | 0.00 | 0.00 | 31 | 1010.6 |
| 20260905210004 | 107 | 148 | 1.7 | 6.1 | 0.00 | 0.00 | 0.00 | 32 | 1010.8 |
| 20260905204503 | 104 | 94 | 0.9 | 3.5 | 0.00 | 0.00 | 0.00 | 37 | 1011.1 |
| 20260905203003 | 105 | 94 | 0.9 | 3.5 | 0.00 | 0.00 | 0.00 | 34 | 1011.3 |
| 20260905201504 | 108 | 161 | 1.7 | 5.2 | 0.00 | 0.00 | 0.00 | 32 | 1011.5 |
| 20260905200003 | 105 | 234 | 1.7 | 7.0 | 0.00 | 0.00 | 0.00 | 35 | 1011.8 |
| 20260905194503 | 108 | 165 | 1.7 | 4.3 | 0.00 | 0.00 | 0.00 | 33 | 1012.1 |